createdAt,value
2023-03-01T00:00:30.056Z,34.30
2023-03-01T00:03:31.343Z,39.70
2023-03-01T00:06:09.906Z,33.30
2023-03-01T00:08:48.250Z,30.10
2023-03-01T00:11:30.635Z,31.10
2023-03-01T00:14:09.538Z,34.20
2023-03-01T00:16:48.392Z,43.00
2023-03-01T00:19:26.547Z,31.50
2023-03-01T00:22:04.087Z,41.30
2023-03-01T00:24:41.857Z,36.00
2023-03-01T00:27:19.597Z,30.10
2023-03-01T00:29:57.013Z,39.60
2023-03-01T00:32:35.094Z,26.10
2023-03-01T00:35:07.291Z,28.60
2023-03-01T00:37:46.029Z,37.40
2023-03-01T00:40:17.751Z,39.40
2023-03-01T00:42:52.507Z,40.10
2023-03-01T00:45:32.365Z,32.40
2023-03-01T00:48:10.741Z,31.80
2023-03-01T00:50:49.163Z,32.30
2023-03-01T00:53:22.430Z,41.20
2023-03-01T00:56:01.614Z,44.40
2023-03-01T00:58:39.189Z,46.00
2023-03-01T01:01:22.479Z,37.20
2023-03-01T01:04:07.466Z,37.70
2023-03-01T01:06:46.338Z,40.10
2023-03-01T01:09:24.159Z,37.50
2023-03-01T01:12:01.972Z,39.10
2023-03-01T01:14:33.358Z,34.50
2023-03-01T01:17:04.817Z,38.30
2023-03-01T01:19:35.851Z,40.60
2023-03-01T01:22:13.529Z,36.90
2023-03-01T01:24:50.406Z,36.70
2023-03-01T01:27:20.740Z,39.00
2023-03-01T01:30:00.017Z,42.40
2023-03-01T01:32:37.670Z,36.00
2023-03-01T01:35:15.181Z,39.40
2023-03-01T01:37:52.630Z,39.40
2023-03-01T01:40:29.849Z,43.40
2023-03-01T01:43:00.385Z,24.00
2023-03-01T01:45:37.540Z,40.70
2023-03-01T01:48:21.292Z,28.10
2023-03-01T01:51:02.545Z,33.20
2023-03-01T01:53:34.886Z,37.60
2023-03-01T01:56:14.454Z,39.90
2023-03-01T01:58:52.994Z,39.00
2023-03-01T02:01:23.311Z,42.60
2023-03-01T02:03:54.632Z,40.30
2023-03-01T02:06:34.082Z,33.80
2023-03-01T02:09:19.173Z,39.30
2023-03-01T02:11:52.592Z,37.00
2023-03-01T02:14:30.905Z,36.50
2023-03-01T02:17:01.151Z,38.10
2023-03-01T02:20:10.203Z,34.50
2023-03-01T02:22:49.465Z,31.20
2023-03-01T02:25:41.066Z,32.30
2023-03-01T02:28:17.271Z,38.50
2023-03-01T02:31:11.416Z,35.90
2023-03-01T02:33:44.715Z,35.00
2023-03-01T02:36:42.416Z,37.10
2023-03-01T02:39:34.109Z,40.50
2023-03-01T02:42:16.364Z,43.00
2023-03-01T02:44:55.255Z,40.60
2023-03-01T02:47:33.166Z,39.20
2023-03-01T02:50:33.838Z,31.80
2023-03-01T02:53:41.157Z,39.60
2023-03-01T02:56:15.277Z,37.40
2023-03-01T02:58:53.010Z,37.50
2023-03-01T03:01:23.955Z,35.80
2023-03-01T03:04:02.844Z,35.00
2023-03-01T03:06:41.408Z,32.20
2023-03-01T03:09:21.954Z,42.80
2023-03-01T03:11:59.895Z,35.30
2023-03-01T03:14:38.452Z,24.80
2023-03-01T03:17:15.932Z,33.90
2023-03-01T03:19:53.227Z,36.10
2023-03-01T03:22:30.639Z,36.40
2023-03-01T03:25:01.760Z,32.10
2023-03-01T03:27:35.560Z,32.70
2023-03-01T03:30:14.977Z,28.80
2023-03-01T03:32:55.348Z,33.70
2023-03-01T03:35:35.480Z,22.40
2023-03-01T03:38:21.332Z,34.30
2023-03-01T03:41:10.570Z,37.20
2023-03-01T03:43:44.287Z,32.90
2023-03-01T03:46:18.714Z,39.70
2023-03-01T03:48:56.028Z,45.10
2023-03-01T03:51:34.128Z,38.50
2023-03-01T03:54:04.570Z,29.80
2023-03-01T03:56:42.265Z,38.60
2023-03-01T03:59:19.796Z,38.10
2023-03-01T04:01:57.601Z,28.60
2023-03-01T04:04:36.064Z,45.30
2023-03-01T04:07:07.878Z,78.20
2023-03-01T04:09:38.553Z,67.90
2023-03-01T04:12:23.223Z,114.80
2023-03-01T04:14:57.240Z,35.70
2023-03-01T04:17:35.372Z,48.30
2023-03-01T04:20:18.774Z,41.50
2023-03-01T04:23:17.387Z,30.50
2023-03-01T04:25:58.159Z,43.20
2023-03-01T04:28:44.431Z,51.70
2023-03-01T04:31:22.884Z,63.20
2023-03-01T04:34:01.455Z,39.20
2023-03-01T04:36:39.163Z,44.10
2023-03-01T04:39:16.579Z,47.40
2023-03-01T04:41:46.699Z,48.80
2023-03-01T04:44:18.148Z,43.00
2023-03-01T04:46:58.205Z,46.60
2023-03-01T04:49:35.711Z,54.80
2023-03-01T04:52:13.302Z,58.50
2023-03-01T04:54:50.575Z,35.20
2023-03-01T04:57:28.494Z,36.10
2023-03-01T05:00:22.776Z,49.70
2023-03-01T05:03:02.323Z,17.40
2023-03-01T05:05:39.999Z,35.20
2023-03-01T05:08:20.101Z,34.00
2023-03-01T05:10:54.128Z,37.80
2023-03-01T05:13:32.716Z,40.00
2023-03-01T05:16:14.270Z,36.80
2023-03-01T05:18:52.360Z,39.00
2023-03-01T05:21:30.171Z,40.00
2023-03-01T05:24:06.868Z,37.10
2023-03-01T05:26:45.008Z,30.40
2023-03-01T05:29:27.206Z,22.80
2023-03-01T05:32:02.396Z,36.00
2023-03-01T05:34:41.252Z,50.90
2023-03-01T05:37:19.750Z,43.80
2023-03-01T05:39:57.477Z,42.20
2023-03-01T05:42:35.474Z,43.60
2023-03-01T05:45:16.832Z,45.40
2023-03-01T05:47:57.584Z,41.70
2023-03-01T05:50:33.701Z,38.00
2023-03-01T05:53:09.386Z,33.60
2023-03-01T05:55:41.519Z,44.00
2023-03-01T05:58:20.871Z,42.50
2023-03-01T06:00:57.828Z,41.90
2023-03-01T06:03:28.034Z,44.50
2023-03-01T06:06:05.975Z,41.00
2023-03-01T06:08:37.565Z,39.00
2023-03-01T06:11:09.219Z,47.70
2023-03-01T06:13:43.784Z,56.20
2023-03-01T06:16:20.707Z,55.40
2023-03-01T06:18:58.264Z,51.70
2023-03-01T06:21:36.121Z,54.90
2023-03-01T06:24:13.376Z,41.60
2023-03-01T06:26:51.588Z,40.80
2023-03-01T06:29:28.799Z,51.80
2023-03-01T06:32:09.478Z,50.10
2023-03-01T06:34:47.165Z,81.70
2023-03-01T06:37:17.761Z,34.90
2023-03-01T06:39:56.793Z,72.70
2023-03-01T06:42:34.359Z,39.80
2023-03-01T06:45:07.424Z,41.30
2023-03-01T06:47:41.778Z,40.90
2023-03-01T06:50:18.195Z,42.60
2023-03-01T06:53:00.638Z,43.00
2023-03-01T06:55:32.291Z,41.50
2023-03-01T06:58:12.464Z,31.10
2023-03-01T07:00:50.134Z,28.70
2023-03-01T07:03:20.766Z,32.00
2023-03-01T07:05:53.988Z,30.10
2023-03-01T07:08:24.142Z,32.10
2023-03-01T07:11:04.016Z,39.20
2023-03-01T07:13:40.721Z,33.20
2023-03-01T07:16:18.828Z,32.80
2023-03-01T07:18:56.271Z,18.50
2023-03-01T07:21:33.739Z,36.90
2023-03-01T07:24:12.833Z,23.50
2023-03-01T07:26:43.355Z,38.00
2023-03-01T07:29:13.526Z,34.40
2023-03-01T07:31:44.504Z,30.30
2023-03-01T07:34:18.157Z,32.30
2023-03-01T07:36:55.444Z,13.30
2023-03-01T07:39:26.830Z,33.10
2023-03-01T07:42:04.479Z,31.30
2023-03-01T07:44:41.891Z,28.90
2023-03-01T07:47:19.679Z,29.00
2023-03-01T07:49:57.483Z,28.90
2023-03-01T07:52:28.652Z,32.80
2023-03-01T07:55:03.829Z,18.30
2023-03-01T07:57:34.459Z,20.20
2023-03-01T08:00:14.031Z,24.50
2023-03-01T08:02:52.307Z,30.70
2023-03-01T08:05:23.674Z,33.50
2023-03-01T08:08:00.957Z,18.90
2023-03-01T08:10:31.282Z,21.40
2023-03-01T08:13:04.471Z,25.40
2023-03-01T08:15:42.174Z,26.70
2023-03-01T08:18:18.991Z,21.60
2023-03-01T08:20:56.214Z,28.70
2023-03-01T08:23:27.162Z,30.40
2023-03-01T08:26:20.393Z,23.40
2023-03-01T08:28:57.197Z,28.70
2023-03-01T08:31:39.748Z,23.90
2023-03-01T08:34:19.635Z,25.90
2023-03-01T08:36:57.277Z,25.30
2023-03-01T08:39:35.030Z,25.90
2023-03-01T08:42:13.363Z,17.90
2023-03-01T08:44:50.746Z,22.40
2023-03-01T08:47:21.256Z,11.30
2023-03-01T08:49:52.814Z,22.10
2023-03-01T08:52:26.258Z,20.90
2023-03-01T08:55:03.803Z,17.40
2023-03-01T08:57:41.917Z,17.70
2023-03-01T09:00:20.321Z,20.80
2023-03-01T09:02:58.497Z,13.70
2023-03-01T09:05:38.713Z,18.70
2023-03-01T09:08:17.210Z,18.10
2023-03-01T09:10:55.277Z,13.00
2023-03-01T09:13:35.623Z,23.30
2023-03-01T09:18:56.899Z,18.30
2023-03-01T09:21:40.539Z,20.90
2023-03-01T09:24:22.780Z,19.00
2023-03-01T09:27:04.815Z,17.20
2023-03-01T09:29:43.554Z,25.90
2023-03-01T09:32:20.953Z,22.00
2023-03-01T09:35:08.211Z,23.20
2023-03-01T09:37:47.780Z,22.50
2023-03-01T09:40:30.171Z,11.90
2023-03-01T09:43:29.165Z,18.50
2023-03-01T09:46:19.062Z,15.10
2023-03-01T09:49:07.278Z,17.60
2023-03-01T09:51:39.254Z,18.20
2023-03-01T09:54:18.549Z,18.00
2023-03-01T09:57:21.685Z,14.80
2023-03-01T10:00:12.762Z,17.10
2023-03-01T10:03:11.519Z,22.60
2023-03-01T10:06:14.937Z,20.50
2023-03-01T10:09:14.779Z,21.40
2023-03-01T10:11:59.507Z,27.00
2023-03-01T10:14:58.905Z,21.90
2023-03-01T10:17:52.610Z,25.00
2023-03-01T10:21:11.178Z,18.90
2023-03-01T10:23:52.760Z,23.00
2023-03-01T10:26:48.808Z,22.20
2023-03-01T10:29:49.833Z,25.10
2023-03-01T10:32:25.164Z,25.10
2023-03-01T10:35:04.507Z,17.50
2023-03-01T10:38:11.723Z,20.70
2023-03-01T10:41:10.387Z,24.50
2023-03-01T10:43:57.073Z,19.70
2023-03-01T10:46:38.255Z,19.60
2023-03-01T10:49:32.043Z,23.30
2023-03-01T10:52:30.005Z,21.80
2023-03-01T10:55:35.287Z,21.40
2023-03-01T10:58:29.342Z,21.20
2023-03-01T11:01:34.436Z,21.10
2023-03-01T11:04:16.899Z,20.40
2023-03-01T11:07:04.200Z,22.30
2023-03-01T11:09:42.803Z,20.50
2023-03-01T11:12:25.574Z,22.10
2023-03-01T11:15:06.007Z,26.10
2023-03-01T11:17:57.060Z,15.10
2023-03-01T11:20:38.595Z,21.90
2023-03-01T11:23:17.090Z,19.80
2023-03-01T11:26:06.407Z,18.70
2023-03-01T11:28:47.002Z,18.70
2023-03-01T11:31:26.348Z,27.60
2023-03-01T11:34:19.484Z,21.20
2023-03-01T11:37:05.683Z,19.10
2023-03-01T11:40:27.534Z,19.60
2023-03-01T11:43:19.431Z,18.00
2023-03-01T11:46:29.894Z,13.50
2023-03-01T11:49:39.452Z,18.90
2023-03-01T11:52:43.147Z,18.10
2023-03-01T11:55:29.219Z,16.20
2023-03-01T11:58:28.645Z,14.50
2023-03-01T12:01:08.303Z,15.00
2023-03-01T12:04:30.380Z,17.10
2023-03-01T12:07:38.653Z,19.60
2023-03-01T12:10:31.676Z,8.70
2023-03-01T12:13:27.243Z,11.10
2023-03-01T12:17:04.688Z,14.90
2023-03-01T12:20:18.222Z,16.40
2023-03-01T12:23:19.387Z,11.70
2023-03-01T12:26:24.217Z,13.70
2023-03-01T12:29:17.910Z,11.00
2023-03-01T12:32:14.383Z,14.10
2023-03-01T12:35:55.856Z,13.00
2023-03-01T12:39:06.544Z,15.00
2023-03-01T12:42:03.313Z,14.80
2023-03-01T12:45:18.573Z,14.80
2023-03-01T12:48:34.835Z,13.00
2023-03-01T12:51:17.114Z,13.90
2023-03-01T12:53:58.760Z,14.10
2023-03-01T12:56:54.709Z,11.70
2023-03-01T12:59:51.433Z,13.60
2023-03-01T13:02:39.286Z,13.40
2023-03-01T13:05:46.060Z,12.20
2023-03-01T13:08:39.079Z,12.70
2023-03-01T13:11:27.191Z,16.80
2023-03-01T13:14:30.402Z,11.70
2023-03-01T13:17:36.989Z,16.00
2023-03-01T13:20:22.889Z,12.90
2023-03-01T13:23:24.914Z,10.50
2023-03-01T13:26:01.588Z,13.20
2023-03-01T13:28:50.183Z,15.30
2023-03-01T13:34:01.436Z,17.60
2023-03-01T13:36:42.507Z,15.90
2023-03-01T13:39:45.992Z,12.30
2023-03-01T13:43:05.269Z,12.70
2023-03-01T13:45:50.808Z,11.50
2023-03-01T13:48:33.002Z,16.00
2023-03-01T13:51:13.171Z,13.90
2023-03-01T13:53:53.073Z,15.30
2023-03-01T13:56:39.624Z,18.00
2023-03-01T13:59:31.778Z,19.60
2023-03-01T14:02:15.195Z,12.30
2023-03-01T14:04:59.382Z,15.00
2023-03-01T14:07:38.325Z,12.40
2023-03-01T14:10:16.264Z,16.80
2023-03-01T14:14:07.605Z,21.30
2023-03-01T14:17:17.506Z,15.80
2023-03-01T14:20:02.437Z,20.80
2023-03-01T14:22:38.642Z,15.00
2023-03-01T14:25:40.834Z,17.10
2023-03-01T14:28:41.599Z,14.70
2023-03-01T14:31:53.809Z,13.40
2023-03-01T14:34:32.327Z,16.60
2023-03-01T14:37:38.578Z,14.80
2023-03-01T14:40:40.437Z,18.80
2023-03-01T14:43:28.200Z,15.80
2023-03-01T14:46:21.021Z,15.90
2023-03-01T14:49:05.107Z,17.60
2023-03-01T14:51:43.393Z,17.10
2023-03-01T14:54:42.197Z,15.60
2023-03-01T14:57:34.154Z,23.90
2023-03-01T15:00:09.812Z,15.70
2023-03-01T15:02:40.947Z,17.10
2023-03-01T15:05:28.826Z,22.00
2023-03-01T15:08:05.724Z,18.30
2023-03-01T15:10:38.289Z,19.70
2023-03-01T15:13:31.848Z,20.40
2023-03-01T15:16:16.818Z,20.30
2023-03-01T15:19:00.629Z,23.30
2023-03-01T15:21:46.564Z,19.70
2023-03-01T15:24:30.324Z,24.90
2023-03-01T15:27:10.288Z,17.70
2023-03-01T15:29:58.957Z,25.20
2023-03-01T15:32:41.272Z,19.40
2023-03-01T15:35:49.344Z,19.10
2023-03-01T15:41:53.274Z,21.00
2023-03-01T15:44:43.264Z,22.10
2023-03-01T15:48:06.158Z,15.40
2023-03-01T15:53:19.678Z,20.40
2023-03-01T15:55:57.460Z,31.10
2023-03-01T15:58:35.112Z,66.90
2023-03-01T16:01:21.097Z,60.80
2023-03-01T16:03:59.511Z,24.90
2023-03-01T16:06:37.164Z,19.90
2023-03-01T16:09:13.955Z,19.70
2023-03-01T16:11:45.324Z,22.60
2023-03-01T16:14:23.387Z,21.70
2023-03-01T16:17:01.610Z,22.90
2023-03-01T16:19:39.964Z,28.40
2023-03-01T16:22:18.294Z,27.00
2023-03-01T16:24:56.074Z,23.70
2023-03-01T16:27:34.508Z,61.00
2023-03-01T16:30:12.935Z,30.50
2023-03-01T16:32:49.341Z,21.40
2023-03-01T16:35:24.441Z,20.10
2023-03-01T16:38:02.149Z,19.70
2023-03-01T16:40:40.544Z,20.00
2023-03-01T16:43:19.233Z,20.60
2023-03-01T16:45:53.883Z,47.30
2023-03-01T16:48:25.358Z,44.90
2023-03-01T16:51:08.972Z,24.30
2023-03-01T16:53:47.635Z,22.60
2023-03-01T16:56:25.362Z,22.80
2023-03-01T16:59:06.376Z,17.10
2023-03-01T17:01:45.663Z,18.80
2023-03-01T17:04:23.374Z,23.30
2023-03-01T17:07:01.122Z,20.90
2023-03-01T17:09:40.991Z,25.30
2023-03-01T17:12:19.372Z,20.50
2023-03-01T17:14:57.777Z,18.30
2023-03-01T17:17:36.823Z,14.80
2023-03-01T17:20:08.997Z,20.30
2023-03-01T17:22:41.535Z,17.60
2023-03-01T17:25:19.851Z,15.80
2023-03-01T17:27:57.793Z,23.70
2023-03-01T17:30:34.983Z,45.50
2023-03-01T17:33:12.542Z,58.40
2023-03-01T17:35:48.813Z,40.30
2023-03-01T17:38:26.675Z,37.60
2023-03-01T17:41:12.290Z,23.00
2023-03-01T17:43:45.883Z,22.20
2023-03-01T17:46:25.324Z,24.60
2023-03-01T17:48:56.041Z,22.20
2023-03-01T17:51:27.598Z,26.40
2023-03-01T17:54:04.373Z,30.30
2023-03-01T17:56:43.116Z,29.30
2023-03-01T17:59:20.660Z,25.60
2023-03-01T18:01:57.946Z,28.00
2023-03-01T18:04:36.828Z,20.50
2023-03-01T18:07:15.704Z,25.70
2023-03-01T18:09:53.524Z,22.80
2023-03-01T18:12:31.679Z,27.70
2023-03-01T18:15:11.639Z,53.70
2023-03-01T18:17:49.353Z,26.70
2023-03-01T18:20:27.739Z,24.10
2023-03-01T18:22:58.750Z,28.20
2023-03-01T18:25:37.096Z,35.20
2023-03-01T18:28:07.773Z,20.70
2023-03-01T18:30:43.774Z,26.40
2023-03-01T18:33:21.707Z,21.50
2023-03-01T18:35:59.458Z,19.10
2023-03-01T18:38:37.552Z,19.20
2023-03-01T18:41:15.413Z,21.20
2023-03-01T18:43:53.929Z,18.60
2023-03-01T18:46:36.094Z,19.50
2023-03-01T18:49:16.860Z,21.70
2023-03-01T18:51:55.831Z,25.60
2023-03-01T18:54:26.774Z,21.60
2023-03-01T18:57:04.904Z,16.40
2023-03-01T18:59:42.489Z,22.00
2023-03-01T19:02:17.420Z,16.20
2023-03-01T19:04:55.863Z,20.60
2023-03-01T19:07:26.451Z,25.80
2023-03-01T19:10:04.445Z,21.30
2023-03-01T19:12:41.529Z,21.50
2023-03-01T19:15:21.133Z,21.80
2023-03-01T19:17:59.337Z,22.40
2023-03-01T19:20:38.911Z,24.20
2023-03-01T19:23:17.549Z,26.10
2023-03-01T19:25:47.896Z,20.80
2023-03-01T19:28:25.862Z,24.60
2023-03-01T19:31:11.767Z,26.60
2023-03-01T19:33:51.364Z,24.20
2023-03-01T19:36:44.854Z,24.50
2023-03-01T19:39:22.352Z,26.60
2023-03-01T19:41:59.688Z,23.10
2023-03-01T19:44:31.166Z,31.10
2023-03-01T19:47:09.398Z,23.10
2023-03-01T19:49:46.202Z,25.90
2023-03-01T19:52:23.718Z,29.50
2023-03-01T19:55:12.229Z,23.00
2023-03-01T19:57:52.077Z,31.30
2023-03-01T20:00:29.974Z,28.80
2023-03-01T20:03:08.018Z,33.00
2023-03-01T20:05:45.378Z,23.70
2023-03-01T20:08:22.089Z,32.60
2023-03-01T20:11:05.605Z,30.10
2023-03-01T20:13:42.660Z,29.50
2023-03-01T20:16:23.346Z,29.50
2023-03-01T20:18:58.648Z,27.90
2023-03-01T20:21:30.073Z,31.80
2023-03-01T20:24:07.063Z,28.80
2023-03-01T20:26:45.330Z,30.60
2023-03-01T20:29:22.577Z,30.60
2023-03-01T20:31:53.936Z,31.60
2023-03-01T20:34:30.351Z,32.50
2023-03-01T20:37:09.675Z,29.10
2023-03-01T20:39:46.792Z,28.20
2023-03-01T20:42:23.818Z,27.70
2023-03-01T20:44:55.608Z,25.00
2023-03-01T20:47:28.849Z,27.80
2023-03-01T20:50:08.503Z,36.30
2023-03-01T20:52:47.058Z,34.40
2023-03-01T20:55:25.222Z,25.40
2023-03-01T20:57:56.786Z,33.30
2023-03-01T21:00:30.431Z,28.90
2023-03-01T21:03:01.521Z,30.30
2023-03-01T21:05:33.186Z,32.90
2023-03-01T21:08:09.036Z,32.10
2023-03-01T21:10:50.070Z,37.90
2023-03-01T21:13:28.601Z,25.80
2023-03-01T21:16:08.218Z,33.10
2023-03-01T21:18:44.935Z,30.60
2023-03-01T21:21:24.296Z,33.30
2023-03-01T21:23:56.242Z,33.70
2023-03-01T21:26:34.303Z,39.70
2023-03-01T21:29:05.334Z,38.40
2023-03-01T21:31:36.361Z,36.30
2023-03-01T21:34:08.155Z,31.70
2023-03-01T21:36:38.302Z,32.20
2023-03-01T21:39:17.017Z,32.70
2023-03-01T21:41:53.954Z,32.00
2023-03-01T21:44:33.170Z,34.50
2023-03-01T21:47:03.764Z,31.90
2023-03-01T21:49:34.424Z,31.60
2023-03-01T21:52:17.782Z,35.10
2023-03-01T21:54:52.840Z,32.80
2023-03-01T21:57:30.520Z,34.50
2023-03-01T22:00:09.250Z,40.30
2023-03-01T22:02:46.165Z,34.40
2023-03-01T22:05:24.108Z,33.00
2023-03-01T22:07:54.403Z,37.50
2023-03-01T22:10:32.558Z,36.20
2023-03-01T22:13:02.863Z,34.60
2023-03-01T22:15:33.242Z,30.50
2023-03-01T22:18:11.512Z,32.60
2023-03-01T22:20:49.036Z,38.60
2023-03-01T22:23:26.096Z,39.60
2023-03-01T22:25:56.501Z,32.50
2023-03-01T22:28:34.087Z,33.30
2023-03-01T22:31:14.695Z,31.60
2023-03-01T22:33:52.351Z,31.90
2023-03-01T22:36:29.933Z,38.90
2023-03-01T22:39:08.884Z,36.00
2023-03-01T22:41:45.497Z,40.60
2023-03-01T22:44:19.896Z,37.90
2023-03-01T22:46:53.715Z,36.60
2023-03-01T22:49:31.577Z,39.90
2023-03-01T22:52:10.164Z,34.00
2023-03-01T22:54:46.901Z,37.30
2023-03-01T22:57:25.591Z,35.50
2023-03-01T22:59:55.880Z,39.70
2023-03-01T23:02:27.832Z,36.70
2023-03-01T23:04:59.993Z,30.70
2023-03-01T23:07:33.008Z,35.90
2023-03-01T23:10:12.577Z,38.80
2023-03-01T23:15:28.361Z,38.20
2023-03-01T23:17:58.493Z,42.40
2023-03-01T23:20:38.827Z,43.90
2023-03-01T23:23:16.850Z,51.10
2023-03-01T23:25:58.323Z,40.90
2023-03-01T23:31:14.940Z,45.50
2023-03-01T23:33:53.830Z,39.50
2023-03-01T23:36:35.884Z,39.70
2023-03-01T23:39:14.752Z,39.20
2023-03-01T23:41:52.393Z,44.60
2023-03-01T23:44:26.856Z,44.50
2023-03-01T23:46:57.819Z,39.80
2023-03-01T23:49:29.645Z,44.40
2023-03-01T23:52:08.217Z,46.10
2023-03-01T23:54:45.932Z,41.90
2023-03-01T23:57:23.332Z,35.70
2023-03-01T23:59:57.576Z,37.80
